sensor_id;sensor_type;location;lat;lon;timestamp;temperature;humidity
22224;DHT22;11281;52.194;21.006;2022-09-13T00:02:30;6.40;99.90
22224;DHT22;11281;52.194;21.006;2022-09-13T00:06:52;6.40;99.90
22224;DHT22;11281;52.194;21.006;2022-09-13T00:11:15;6.30;99.90
22224;DHT22;11281;52.194;21.006;2022-09-13T00:15:44;6.30;99.90
22224;DHT22;11281;52.194;21.006;2022-09-13T00:20:08;6.20;99.90
22224;DHT22;11281;52.194;21.006;2022-09-13T00:24:30;6.20;99.90
22224;DHT22;11281;52.194;21.006;2022-09-13T00:28:53;6.10;99.90
22224;DHT22;11281;52.194;21.006;2022-09-13T00:33:18;6.10;99.90
22224;DHT22;11281;52.194;21.006;2022-09-13T00:37:40;6.00;99.90
22224;DHT22;11281;52.194;21.006;2022-09-13T00:42:02;5.90;99.90
22224;DHT22;11281;52.194;21.006;2022-09-13T00:46:43;5.90;99.90
22224;DHT22;11281;52.194;21.006;2022-09-13T00:51:07;5.90;99.90
22224;DHT22;11281;52.194;21.006;2022-09-13T00:55:47;5.90;99.90
22224;DHT22;11281;52.194;21.006;2022-09-13T01:00:16;5.90;99.90
22224;DHT22;11281;52.194;21.006;2022-09-13T01:04:38;6.00;99.90
22224;DHT22;11281;52.194;21.006;2022-09-13T01:09:01;6.20;99.90
22224;DHT22;11281;52.194;21.006;2022-09-13T01:13:26;6.20;99.90
22224;DHT22;11281;52.194;21.006;2022-09-13T01:17:52;6.20;99.90
22224;DHT22;11281;52.194;21.006;2022-09-13T01:32:03;6.20;99.90
22224;DHT22;11281;52.194;21.006;2022-09-13T01:46:31;5.60;99.90
22224;DHT22;11281;52.194;21.006;2022-09-13T01:51:06;5.50;99.90
22224;DHT22;11281;52.194;21.006;2022-09-13T01:55:58;5.40;99.90
22224;DHT22;11281;52.194;21.006;2022-09-13T02:00:25;5.30;99.90
22224;DHT22;11281;52.194;21.006;2022-09-13T02:04:55;5.40;99.90
22224;DHT22;11281;52.194;21.006;2022-09-13T02:09:24;5.40;99.90
22224;DHT22;11281;52.194;21.006;2022-09-13T02:13:53;5.20;99.90
22224;DHT22;11281;52.194;21.006;2022-09-13T02:18:24;5.20;99.90
22224;DHT22;11281;52.194;21.006;2022-09-13T02:22:53;5.30;99.90
22224;DHT22;11281;52.194;21.006;2022-09-13T02:27:22;5.10;99.90
22224;DHT22;11281;52.194;21.006;2022-09-13T02:36:25;5.10;99.90
22224;DHT22;11281;52.194;21.006;2022-09-13T02:40:52;5.10;99.90
22224;DHT22;11281;52.194;21.006;2022-09-13T02:45:23;5.10;99.90
22224;DHT22;11281;52.194;21.006;2022-09-13T03:00:14;5.20;99.90
22224;DHT22;11281;52.194;21.006;2022-09-13T03:04:36;5.10;99.90
22224;DHT22;11281;52.194;21.006;2022-09-13T03:09:03;5.20;99.90
22224;DHT22;11281;52.194;21.006;2022-09-13T03:13:33;5.20;99.90
22224;DHT22;11281;52.194;21.006;2022-09-13T03:33:01;5.20;99.90
22224;DHT22;11281;52.194;21.006;2022-09-13T03:37:53;5.20;99.90
22224;DHT22;11281;52.194;21.006;2022-09-13T03:42:27;5.10;99.90
22224;DHT22;11281;52.194;21.006;2022-09-13T03:47:26;5.10;99.90
22224;DHT22;11281;52.194;21.006;2022-09-13T03:51:49;5.30;99.90
22224;DHT22;11281;52.194;21.006;2022-09-13T03:56:17;5.30;99.90
22224;DHT22;11281;52.194;21.006;2022-09-13T04:00:40;5.10;99.90
22224;DHT22;11281;52.194;21.006;2022-09-13T04:05:01;5.10;99.90
22224;DHT22;11281;52.194;21.006;2022-09-13T04:09:23;5.20;99.90
22224;DHT22;11281;52.194;21.006;2022-09-13T04:13:45;5.10;99.90
22224;DHT22;11281;52.194;21.006;2022-09-13T04:18:07;5.10;99.90
22224;DHT22;11281;52.194;21.006;2022-09-13T04:22:29;5.10;99.90
22224;DHT22;11281;52.194;21.006;2022-09-13T04:26:52;5.10;99.90
22224;DHT22;11281;52.194;21.006;2022-09-13T04:31:16;5.30;99.90
22224;DHT22;11281;52.194;21.006;2022-09-13T04:35:38;5.50;99.90
22224;DHT22;11281;52.194;21.006;2022-09-13T04:40:01;5.50;99.90
22224;DHT22;11281;52.194;21.006;2022-09-13T04:44:23;5.50;99.90
22224;DHT22;11281;52.194;21.006;2022-09-13T04:48:50;5.40;99.90
22224;DHT22;11281;52.194;21.006;2022-09-13T04:53:12;5.50;99.90
22224;DHT22;11281;52.194;21.006;2022-09-13T04:57:34;5.80;99.90
22224;DHT22;11281;52.194;21.006;2022-09-13T05:01:56;5.90;99.90
22224;DHT22;11281;52.194;21.006;2022-09-13T05:06:18;6.00;99.90
22224;DHT22;11281;52.194;21.006;2022-09-13T05:10:41;6.20;99.90
22224;DHT22;11281;52.194;21.006;2022-09-13T05:15:03;6.40;99.90
22224;DHT22;11281;52.194;21.006;2022-09-13T05:19:26;6.50;99.90
22224;DHT22;11281;52.194;21.006;2022-09-13T05:23:49;6.60;99.90
22224;DHT22;11281;52.194;21.006;2022-09-13T05:28:11;6.90;99.90
22224;DHT22;11281;52.194;21.006;2022-09-13T05:32:33;7.20;99.90
22224;DHT22;11281;52.194;21.006;2022-09-13T05:36:55;7.30;99.90
22224;DHT22;11281;52.194;21.006;2022-09-13T05:41:16;7.50;99.90
22224;DHT22;11281;52.194;21.006;2022-09-13T05:45:39;7.50;99.90
22224;DHT22;11281;52.194;21.006;2022-09-13T05:50:01;7.70;99.90
22224;DHT22;11281;52.194;21.006;2022-09-13T05:54:22;7.90;99.90
22224;DHT22;11281;52.194;21.006;2022-09-13T05:58:46;8.10;99.90
22224;DHT22;11281;52.194;21.006;2022-09-13T06:03:09;8.40;99.90
22224;DHT22;11281;52.194;21.006;2022-09-13T06:07:30;8.50;99.90
22224;DHT22;11281;52.194;21.006;2022-09-13T06:11:52;8.50;99.90
22224;DHT22;11281;52.194;21.006;2022-09-13T06:16:14;8.80;99.90
22224;DHT22;11281;52.194;21.006;2022-09-13T06:20:37;8.80;99.90
22224;DHT22;11281;52.194;21.006;2022-09-13T06:24:59;9.00;99.90
22224;DHT22;11281;52.194;21.006;2022-09-13T06:29:20;9.10;99.90
22224;DHT22;11281;52.194;21.006;2022-09-13T06:33:43;9.50;99.90
22224;DHT22;11281;52.194;21.006;2022-09-13T06:38:05;9.60;99.90
22224;DHT22;11281;52.194;21.006;2022-09-13T06:42:26;9.70;99.90
22224;DHT22;11281;52.194;21.006;2022-09-13T06:46:48;9.90;99.90
22224;DHT22;11281;52.194;21.006;2022-09-13T06:51:18;10.10;99.90
22224;DHT22;11281;52.194;21.006;2022-09-13T06:55:44;9.90;99.90
22224;DHT22;11281;52.194;21.006;2022-09-13T07:00:06;10.20;99.90
22224;DHT22;11281;52.194;21.006;2022-09-13T07:04:29;10.20;99.90
22224;DHT22;11281;52.194;21.006;2022-09-13T07:08:55;10.40;99.90
22224;DHT22;11281;52.194;21.006;2022-09-13T07:13:17;10.50;99.90
22224;DHT22;11281;52.194;21.006;2022-09-13T07:17:39;10.90;99.90
22224;DHT22;11281;52.194;21.006;2022-09-13T07:22:01;10.90;99.90
22224;DHT22;11281;52.194;21.006;2022-09-13T07:26:24;11.30;99.90
22224;DHT22;11281;52.194;21.006;2022-09-13T07:30:47;11.20;99.90
22224;DHT22;11281;52.194;21.006;2022-09-13T07:35:09;11.40;99.90
22224;DHT22;11281;52.194;21.006;2022-09-13T07:39:31;11.50;99.90
22224;DHT22;11281;52.194;21.006;2022-09-13T07:43:54;11.60;99.90
22224;DHT22;11281;52.194;21.006;2022-09-13T07:48:16;11.80;99.90
22224;DHT22;11281;52.194;21.006;2022-09-13T07:52:38;11.70;99.90
22224;DHT22;11281;52.194;21.006;2022-09-13T07:57:00;11.80;99.90
22224;DHT22;11281;52.194;21.006;2022-09-13T08:01:32;11.80;99.90
22224;DHT22;11281;52.194;21.006;2022-09-13T08:05:55;12.00;99.90
22224;DHT22;11281;52.194;21.006;2022-09-13T08:10:17;12.10;99.90
22224;DHT22;11281;52.194;21.006;2022-09-13T08:14:39;12.60;99.90
22224;DHT22;11281;52.194;21.006;2022-09-13T08:19:03;12.70;99.90
22224;DHT22;11281;52.194;21.006;2022-09-13T08:23:25;12.70;99.90
22224;DHT22;11281;52.194;21.006;2022-09-13T08:27:47;12.60;99.90
22224;DHT22;11281;52.194;21.006;2022-09-13T08:32:09;12.80;99.90
22224;DHT22;11281;52.194;21.006;2022-09-13T08:36:31;13.00;99.90
22224;DHT22;11281;52.194;21.006;2022-09-13T08:41:32;13.20;99.90
22224;DHT22;11281;52.194;21.006;2022-09-13T08:45:49;13.60;99.90
22224;DHT22;11281;52.194;21.006;2022-09-13T08:50:21;14.00;99.90
22224;DHT22;11281;52.194;21.006;2022-09-13T08:54:45;14.30;99.90
22224;DHT22;11281;52.194;21.006;2022-09-13T09:04:03;14.80;99.90
22224;DHT22;11281;52.194;21.006;2022-09-13T09:13:08;15.40;99.90
22224;DHT22;11281;52.194;21.006;2022-09-13T09:22:22;15.50;99.90
22224;DHT22;11281;52.194;21.006;2022-09-13T09:26:45;15.80;99.90
22224;DHT22;11281;52.194;21.006;2022-09-13T09:36:02;15.80;99.90
22224;DHT22;11281;52.194;21.006;2022-09-13T09:40:28;16.40;99.90
22224;DHT22;11281;52.194;21.006;2022-09-13T09:44:54;16.60;99.90
22224;DHT22;11281;52.194;21.006;2022-09-13T09:49:32;16.40;99.90
22224;DHT22;11281;52.194;21.006;2022-09-13T09:54:17;16.70;99.90
22224;DHT22;11281;52.194;21.006;2022-09-13T09:58:41;16.70;99.90
22224;DHT22;11281;52.194;21.006;2022-09-13T10:03:13;17.00;99.90
22224;DHT22;11281;52.194;21.006;2022-09-13T10:07:38;16.80;99.90
22224;DHT22;11281;52.194;21.006;2022-09-13T10:12:01;16.80;99.90
22224;DHT22;11281;52.194;21.006;2022-09-13T10:16:28;17.10;99.90
22224;DHT22;11281;52.194;21.006;2022-09-13T10:25:42;17.50;99.90
22224;DHT22;11281;52.194;21.006;2022-09-13T10:30:05;17.40;99.90
22224;DHT22;11281;52.194;21.006;2022-09-13T10:34:48;17.30;99.90
22224;DHT22;11281;52.194;21.006;2022-09-13T10:39:17;17.20;99.90
22224;DHT22;11281;52.194;21.006;2022-09-13T10:43:40;17.10;99.90
22224;DHT22;11281;52.194;21.006;2022-09-13T10:48:16;17.00;99.90
22224;DHT22;11281;52.194;21.006;2022-09-13T10:57:33;17.30;99.90
22224;DHT22;11281;52.194;21.006;2022-09-13T11:07:02;17.40;99.90
22224;DHT22;11281;52.194;21.006;2022-09-13T11:40:39;17.30;99.90
22224;DHT22;11281;52.194;21.006;2022-09-13T11:45:30;17.70;99.90
22224;DHT22;11281;52.194;21.006;2022-09-13T11:59:55;18.20;99.90
22224;DHT22;11281;52.194;21.006;2022-09-13T12:04:28;18.40;99.90
22224;DHT22;11281;52.194;21.006;2022-09-13T12:09:04;18.20;99.90
22224;DHT22;11281;52.194;21.006;2022-09-13T12:13:45;18.40;99.90
22224;DHT22;11281;52.194;21.006;2022-09-13T12:23:13;17.80;99.90
22224;DHT22;11281;52.194;21.006;2022-09-13T12:28:09;17.70;99.90
22224;DHT22;11281;52.194;21.006;2022-09-13T12:32:48;17.50;99.90
22224;DHT22;11281;52.194;21.006;2022-09-13T13:01:18;16.60;99.90
22224;DHT22;11281;52.194;21.006;2022-09-13T13:05:46;16.50;99.90
22224;DHT22;11281;52.194;21.006;2022-09-13T13:10:34;16.10;99.90
22224;DHT22;11281;52.194;21.006;2022-09-13T13:14:59;16.00;99.90
22224;DHT22;11281;52.194;21.006;2022-09-13T13:19:32;15.90;99.90
22224;DHT22;11281;52.194;21.006;2022-09-13T13:33:22;15.80;99.90
22224;DHT22;11281;52.194;21.006;2022-09-13T13:37:47;16.00;99.90
22224;DHT22;11281;52.194;21.006;2022-09-13T13:42:24;15.90;99.90
22224;DHT22;11281;52.194;21.006;2022-09-13T13:51:36;16.10;99.90
22224;DHT22;11281;52.194;21.006;2022-09-13T13:56:16;16.20;99.90
22224;DHT22;11281;52.194;21.006;2022-09-13T14:00:47;16.00;99.90
22224;DHT22;11281;52.194;21.006;2022-09-13T14:09:59;15.70;99.90
22224;DHT22;11281;52.194;21.006;2022-09-13T14:23:44;16.10;99.90
22224;DHT22;11281;52.194;21.006;2022-09-13T14:28:06;16.30;99.90
22224;DHT22;11281;52.194;21.006;2022-09-13T14:32:30;16.40;99.90
22224;DHT22;11281;52.194;21.006;2022-09-13T14:37:06;16.40;99.90
22224;DHT22;11281;52.194;21.006;2022-09-13T14:41:37;16.40;99.90
22224;DHT22;11281;52.194;21.006;2022-09-13T14:50:56;16.40;99.90
22224;DHT22;11281;52.194;21.006;2022-09-13T14:55:27;16.40;99.90
22224;DHT22;11281;52.194;21.006;2022-09-13T14:59:59;16.30;99.90
22224;DHT22;11281;52.194;21.006;2022-09-13T15:04:29;16.30;99.90
22224;DHT22;11281;52.194;21.006;2022-09-13T15:08:52;16.30;99.90
22224;DHT22;11281;52.194;21.006;2022-09-13T15:13:20;16.20;99.90
22224;DHT22;11281;52.194;21.006;2022-09-13T15:18:00;16.10;99.90
22224;DHT22;11281;52.194;21.006;2022-09-13T15:22:23;16.20;99.90
22224;DHT22;11281;52.194;21.006;2022-09-13T15:27:04;16.30;99.90
22224;DHT22;11281;52.194;21.006;2022-09-13T15:31:33;16.30;99.90
22224;DHT22;11281;52.194;21.006;2022-09-13T15:40:46;16.00;99.90
22224;DHT22;11281;52.194;21.006;2022-09-13T15:45:19;16.10;99.90
22224;DHT22;11281;52.194;21.006;2022-09-13T15:49:47;15.90;99.90
22224;DHT22;11281;52.194;21.006;2022-09-13T15:54:15;15.80;99.90
22224;DHT22;11281;52.194;21.006;2022-09-13T15:58:38;15.60;99.90
22224;DHT22;11281;52.194;21.006;2022-09-13T16:02:59;15.70;99.90
22224;DHT22;11281;52.194;21.006;2022-09-13T16:07:22;15.50;99.90
22224;DHT22;11281;52.194;21.006;2022-09-13T16:11:46;15.50;99.90
22224;DHT22;11281;52.194;21.006;2022-09-13T16:16:14;15.50;99.90
22224;DHT22;11281;52.194;21.006;2022-09-13T16:20:36;15.40;99.90
22224;DHT22;11281;52.194;21.006;2022-09-13T16:24:57;15.30;99.90
22224;DHT22;11281;52.194;21.006;2022-09-13T16:29:19;15.10;99.90
22224;DHT22;11281;52.194;21.006;2022-09-13T16:33:41;15.00;99.90
22224;DHT22;11281;52.194;21.006;2022-09-13T16:38:03;14.90;99.90
22224;DHT22;11281;52.194;21.006;2022-09-13T16:42:25;14.80;99.90
22224;DHT22;11281;52.194;21.006;2022-09-13T16:46:47;14.80;99.90
22224;DHT22;11281;52.194;21.006;2022-09-13T16:51:10;14.70;99.90
22224;DHT22;11281;52.194;21.006;2022-09-13T16:55:33;14.70;99.90
22224;DHT22;11281;52.194;21.006;2022-09-13T16:59:55;14.60;99.90
22224;DHT22;11281;52.194;21.006;2022-09-13T17:04:18;14.60;99.90
22224;DHT22;11281;52.194;21.006;2022-09-13T17:08:44;14.60;99.90
22224;DHT22;11281;52.194;21.006;2022-09-13T17:13:07;14.50;99.90
22224;DHT22;11281;52.194;21.006;2022-09-13T17:17:29;14.50;99.90
22224;DHT22;11281;52.194;21.006;2022-09-13T17:21:56;14.50;99.90
22224;DHT22;11281;52.194;21.006;2022-09-13T17:26:18;14.40;99.90
22224;DHT22;11281;52.194;21.006;2022-09-13T17:30:40;14.40;99.90
22224;DHT22;11281;52.194;21.006;2022-09-13T17:35:03;14.40;99.90
22224;DHT22;11281;52.194;21.006;2022-09-13T17:39:24;14.40;99.90
22224;DHT22;11281;52.194;21.006;2022-09-13T17:43:47;14.40;99.90
22224;DHT22;11281;52.194;21.006;2022-09-13T17:48:08;14.40;99.90
22224;DHT22;11281;52.194;21.006;2022-09-13T17:52:30;14.40;99.90
22224;DHT22;11281;52.194;21.006;2022-09-13T17:56:53;14.40;99.90
22224;DHT22;11281;52.194;21.006;2022-09-13T18:01:15;14.40;99.90
22224;DHT22;11281;52.194;21.006;2022-09-13T18:05:37;14.30;99.90
22224;DHT22;11281;52.194;21.006;2022-09-13T18:09:58;14.30;99.90
22224;DHT22;11281;52.194;21.006;2022-09-13T18:14:20;14.30;99.90
22224;DHT22;11281;52.194;21.006;2022-09-13T18:18:44;14.40;99.90
22224;DHT22;11281;52.194;21.006;2022-09-13T18:23:08;14.30;99.90
22224;DHT22;11281;52.194;21.006;2022-09-13T18:27:30;14.30;99.90
22224;DHT22;11281;52.194;21.006;2022-09-13T18:31:53;14.30;99.90
22224;DHT22;11281;52.194;21.006;2022-09-13T18:36:16;14.30;99.90
22224;DHT22;11281;52.194;21.006;2022-09-13T18:40:38;14.30;99.90
22224;DHT22;11281;52.194;21.006;2022-09-13T18:45:00;14.30;99.90
22224;DHT22;11281;52.194;21.006;2022-09-13T18:49:21;14.30;99.90
22224;DHT22;11281;52.194;21.006;2022-09-13T18:53:44;14.30;99.90
22224;DHT22;11281;52.194;21.006;2022-09-13T18:58:06;14.30;99.90
22224;DHT22;11281;52.194;21.006;2022-09-13T19:02:27;14.30;99.90
22224;DHT22;11281;52.194;21.006;2022-09-13T19:06:53;14.30;99.90
22224;DHT22;11281;52.194;21.006;2022-09-13T19:11:17;14.30;99.90
22224;DHT22;11281;52.194;21.006;2022-09-13T19:15:40;14.30;99.90
22224;DHT22;11281;52.194;21.006;2022-09-13T19:20:02;14.30;99.90
22224;DHT22;11281;52.194;21.006;2022-09-13T19:24:24;14.30;99.90
22224;DHT22;11281;52.194;21.006;2022-09-13T19:29:06;14.30;99.90
22224;DHT22;11281;52.194;21.006;2022-09-13T19:33:31;14.30;99.90
22224;DHT22;11281;52.194;21.006;2022-09-13T19:37:52;14.30;99.90
22224;DHT22;11281;52.194;21.006;2022-09-13T19:42:14;14.40;99.90
22224;DHT22;11281;52.194;21.006;2022-09-13T19:46:38;14.50;99.90
22224;DHT22;11281;52.194;21.006;2022-09-13T19:51:05;14.50;99.90
22224;DHT22;11281;52.194;21.006;2022-09-13T19:55:31;14.30;99.90
22224;DHT22;11281;52.194;21.006;2022-09-13T19:59:53;14.30;99.90
22224;DHT22;11281;52.194;21.006;2022-09-13T20:04:19;14.20;99.90
22224;DHT22;11281;52.194;21.006;2022-09-13T20:08:41;14.20;99.90
22224;DHT22;11281;52.194;21.006;2022-09-13T20:13:03;14.20;99.90
22224;DHT22;11281;52.194;21.006;2022-09-13T20:17:24;14.20;99.90
22224;DHT22;11281;52.194;21.006;2022-09-13T20:21:46;14.20;99.90
22224;DHT22;11281;52.194;21.006;2022-09-13T20:26:22;14.20;99.90
22224;DHT22;11281;52.194;21.006;2022-09-13T20:30:56;14.20;99.90
22224;DHT22;11281;52.194;21.006;2022-09-13T20:35:20;14.10;99.90
22224;DHT22;11281;52.194;21.006;2022-09-13T20:39:43;14.20;99.90
22224;DHT22;11281;52.194;21.006;2022-09-13T20:44:05;14.10;99.90
22224;DHT22;11281;52.194;21.006;2022-09-13T20:48:27;14.10;99.90
22224;DHT22;11281;52.194;21.006;2022-09-13T20:52:49;14.10;99.90
22224;DHT22;11281;52.194;21.006;2022-09-13T20:57:11;14.20;99.90
22224;DHT22;11281;52.194;21.006;2022-09-13T21:01:33;14.30;99.90
22224;DHT22;11281;52.194;21.006;2022-09-13T21:05:55;14.30;99.90
22224;DHT22;11281;52.194;21.006;2022-09-13T21:10:17;14.50;99.90
22224;DHT22;11281;52.194;21.006;2022-09-13T21:14:38;14.40;99.90
22224;DHT22;11281;52.194;21.006;2022-09-13T21:19:00;14.50;99.90
22224;DHT22;11281;52.194;21.006;2022-09-13T21:23:22;14.60;99.90
22224;DHT22;11281;52.194;21.006;2022-09-13T21:27:44;14.90;99.90
22224;DHT22;11281;52.194;21.006;2022-09-13T21:32:06;15.00;99.90
22224;DHT22;11281;52.194;21.006;2022-09-13T21:36:30;15.10;99.90
22224;DHT22;11281;52.194;21.006;2022-09-13T21:40:56;15.00;99.90
22224;DHT22;11281;52.194;21.006;2022-09-13T21:45:23;15.00;99.90
22224;DHT22;11281;52.194;21.006;2022-09-13T21:49:44;14.90;99.90
22224;DHT22;11281;52.194;21.006;2022-09-13T21:54:09;14.90;99.90
22224;DHT22;11281;52.194;21.006;2022-09-13T21:58:32;14.80;99.90
22224;DHT22;11281;52.194;21.006;2022-09-13T22:02:54;14.70;99.90
22224;DHT22;11281;52.194;21.006;2022-09-13T22:07:16;14.70;99.90
22224;DHT22;11281;52.194;21.006;2022-09-13T22:11:40;14.60;99.90
22224;DHT22;11281;52.194;21.006;2022-09-13T22:16:08;14.50;99.90
22224;DHT22;11281;52.194;21.006;2022-09-13T22:20:30;14.50;99.90
22224;DHT22;11281;52.194;21.006;2022-09-13T22:24:51;14.50;99.90
22224;DHT22;11281;52.194;21.006;2022-09-13T22:29:14;14.50;99.90
22224;DHT22;11281;52.194;21.006;2022-09-13T22:33:36;14.50;99.90
22224;DHT22;11281;52.194;21.006;2022-09-13T22:37:59;14.50;99.90
22224;DHT22;11281;52.194;21.006;2022-09-13T22:42:20;14.50;99.90
22224;DHT22;11281;52.194;21.006;2022-09-13T22:46:44;14.50;99.90
22224;DHT22;11281;52.194;21.006;2022-09-13T22:51:07;14.50;99.90
22224;DHT22;11281;52.194;21.006;2022-09-13T22:55:32;14.60;99.90
22224;DHT22;11281;52.194;21.006;2022-09-13T22:59:54;14.50;99.90
22224;DHT22;11281;52.194;21.006;2022-09-13T23:04:16;14.60;99.90
22224;DHT22;11281;52.194;21.006;2022-09-13T23:08:39;14.60;99.90
22224;DHT22;11281;52.194;21.006;2022-09-13T23:13:01;14.60;99.90
22224;DHT22;11281;52.194;21.006;2022-09-13T23:17:23;14.70;99.90
22224;DHT22;11281;52.194;21.006;2022-09-13T23:21:45;14.70;99.90
22224;DHT22;11281;52.194;21.006;2022-09-13T23:26:13;14.70;99.90
22224;DHT22;11281;52.194;21.006;2022-09-13T23:30:37;14.70;99.90
22224;DHT22;11281;52.194;21.006;2022-09-13T23:34:59;14.70;99.90
22224;DHT22;11281;52.194;21.006;2022-09-13T23:39:21;14.70;99.90
22224;DHT22;11281;52.194;21.006;2022-09-13T23:43:43;14.70;99.90
22224;DHT22;11281;52.194;21.006;2022-09-13T23:48:05;14.70;99.90
22224;DHT22;11281;52.194;21.006;2022-09-13T23:52:27;14.60;99.90
22224;DHT22;11281;52.194;21.006;2022-09-13T23:56:48;14.60;99.90
